Flight Track Log - Related Links

Times and Time Zones

All times are in EDT time to prevent confusion due to time zone crossing. See the CPZ5714 flight status page for this flight to view local times or setup timezone preferences in your user account.

Time Position Orientation Groundspeed Altitude Reporting Facility
EDT Latitude Longitude Course Direction KTS MPH feet Rate Location/Type
Sun 08:58:04 PM 44.9333 -93.2333 70° East 182 209 2,400  Level Minneapolis TRACON
Sun 08:58:38 PM 44.9539 -93.2408 346° North 189 217 3,000 2,103 Climbing Minneapolis Center
Sun 08:59:41 PM 45.0000 -93.1556 53° Northeast 247 284 5,800 2,784 Climbing Minneapolis Center
Sun 09:00:43 PM 45.0333 -93.0642 63° Northeast 258 297 8,800 2,010 Climbing Minneapolis Center
Sun 09:02:00 PM 45.0265 -92.8541 69° East  Level Estimated
Sun 09:02:58 PM 45.1083 -92.8500 69° East 331 381 12,400  Level Minneapolis Center
Sun 09:03:00 PM 45.1205 -92.3017 70° East  Level FlightAware Approximate
Sun 09:04:00 PM 45.1439 -92.6958 72° East 346 398 15,000  Level Minneapolis Center
Sun 09:05:02 PM 45.1694 -92.5617 75° East 354 407 16,900 1,742 Climbing Minneapolis Center
Sun 09:06:04 PM 45.1956 -92.4233 75° East 361 415 18,600 1,887 Climbing Minneapolis Center
Sun 09:07:06 PM 45.2272 -92.2497 75° East 380 437 20,800 1,854 Climbing Minneapolis Center
Sun 09:08:07 PM 45.2544 -92.1050 75° East 382 440 22,400 1,366 Climbing Minneapolis Center
Sun 09:09:09 PM 45.2833 -91.9533 75° East 393 452 23,600 1,210 Climbing Minneapolis Center
Sun 09:10:11 PM 45.3128 -91.7997 75° East 404 465 24,900 1,161 Climbing Minneapolis Center
Sun 09:11:13 PM 45.3414 -91.6403 76° East 416 479 26,000 1,008 Climbing Minneapolis Center
Sun 09:12:16 PM 45.3681 -91.4783 77° East 420 483 27,000 871 Climbing Minneapolis Center
Sun 09:13:17 PM 45.3989 -91.3142 75° East 428 493 27,800 878 Climbing Minneapolis Center
Sun 09:14:19 PM 45.4319 -91.1181 76° East 439 505 28,800 829 Climbing Minneapolis Center
Sun 09:15:20 PM 45.4564 -90.9822 76° East 443 510 29,500 829 Climbing Minneapolis Center
Sun 09:16:22 PM 45.4769 -90.7736 82° East 444 511 30,500 823 Climbing Minneapolis Center
Sun 09:17:24 PM 45.4650 -90.5956 95° East 451 519 31,200 629 Climbing Minneapolis Center
Sun 09:18:26 PM 45.4542 -90.4172 95° East 454 522 31,800 677 Climbing Minneapolis Center
Sun 09:19:28 PM 45.4400 -90.2019 95° East 457 526 32,600 585 Climbing Minneapolis Center
Sun 09:20:29 PM 45.4281 -90.0225 95° East 457 526 33,000 195 Climbing Minneapolis Center
Sun 09:21:31 PM 45.4153 -89.8386 96° East 466 536 33,000  Level Minneapolis Center
Sun 09:22:33 PM 45.4028 -89.6486 95° East 481 554 33,000  Level Minneapolis Center
Sun 09:23:34 PM 45.3894 -89.4594 96° East 483 556 33,000  Level Minneapolis Center
Sun 09:24:36 PM 45.3753 -89.2697 96° East 484 557 33,000  Level Minneapolis Center
Sun 09:25:38 PM 45.3581 -89.0428 96° East 486 559 33,000  Level Minneapolis Center
Sun 09:26:39 PM 45.3439 -88.8514 96° East 488 562 33,000  Level Minneapolis Center
Sun 09:27:41 PM 45.3286 -88.6614 96° East 487 560 33,000  Level Minneapolis Center
Sun 09:28:42 PM 45.3147 -88.4706 96° East 488 562 33,000  Level Minneapolis Center
Sun 09:29:44 PM 45.2983 -88.2789 97° East 490 564 33,000  Level Minneapolis Center
Sun 09:30:45 PM 45.2811 -88.0628 96° East 486 559 33,000  Level Minneapolis Center
Sun 09:31:47 PM 45.2650 -87.8725 97° East 485 558 33,000  Level Minneapolis Center
Sun 09:32:48 PM 45.2483 -87.6806 97° East 489 563 33,000  Level Minneapolis Center
Sun 09:33:50 PM 45.2311 -87.4908 97° East 487 560 33,000  Level Minneapolis Center
Sun 09:34:51 PM 45.2142 -87.2997 97° East 487 560 33,000  Level Minneapolis Center
Sun 09:35:53 PM 45.1964 -87.1119 98° East 483 556 33,000  Level Minneapolis Center
Sun 09:36:54 PM 45.1817 -86.9600 98° East 485 558 33,000  Level Minneapolis Center
Sun 09:37:56 PM 45.1589 -86.7139 97° East 484 557 33,000  Level Minneapolis Center
Sun 09:38:57 PM 45.1431 -86.5614 98° East 488 562 33,000  Level Minneapolis Center
Sun 09:39:59 PM 45.1211 -86.3344 98° East 487 560 33,000  Level Minneapolis Center
Sun 09:41:00 PM 45.1025 -86.1464 98° East 484 557 33,000  Level Minneapolis Center
Sun 09:42:01 PM 45.0872 -85.9964 98° East 483 556 33,000  Level Minneapolis Center
Sun 09:43:03 PM 45.0647 -85.7717 98° East 482 555 33,000  Level Minneapolis Center
Sun 09:44:04 PM 45.0419 -85.5561 98° East 483 556 33,000  Level Minneapolis Center
Sun 09:45:05 PM 45.0217 -85.3686 99° East 482 555 33,000  Level Minneapolis Center
Sun 09:46:07 PM 45.0008 -85.1806 99° East 484 557 33,000  Level Minneapolis Center
Sun 09:47:08 PM 44.9842 -85.0325 99° East 481 554 33,000  Level Minneapolis Center
Sun 09:48:09 PM 44.9603 -84.8094 99° East 480 552 33,000  Level Minneapolis Center
Sun 09:49:10 PM 44.9400 -84.6247 99° East 478 550 33,000  Level Minneapolis Center
Sun 09:50:24 PM 44.9172 -84.4403 100° East 478 550 33,000  Level Minneapolis Center
Sun 09:51:25 PM 44.8914 -84.2192 99° East 478 550 33,000  Level Minneapolis Center
Sun 09:52:27 PM 44.8661 -83.9994 99° East 476 548 33,000  Level Minneapolis Center
Sun 09:53:28 PM 44.8425 -83.8158 100° East 476 548 33,000  Level Minneapolis Center
Sun 09:54:29 PM 44.8197 -83.6339 100° East 474 545 33,000  Level Minneapolis Center
Sun 09:55:30 PM 44.8025 -83.4869 99° East 476 548 33,000  Level Minneapolis Center
Sun 09:56:32 PM 44.7756 -83.2675 100° East 475 547 33,000  Level Minneapolis Center
Sun 09:57:33 PM 44.7522 -83.0847 100° East 476 548 33,000  Level Minneapolis Center
Sun 09:58:34 PM 44.7283 -82.9028 100° East 475 547 33,000  Level Minneapolis Center
Sun 09:59:36 PM 44.7047 -82.7219 100° East 473 544 33,000  Level Minneapolis Center
Sun 10:00:37 PM 44.6786 -82.5406 101° East 474 545 33,000  Level Minneapolis Center
Sun 10:01:38 PM 44.6333 -82.3333 107° East 470 541 33,000  Level Toronto Center
Sun 10:02:38 PM 44.6000 -82.1333 103° East 480 552 33,000  Level Toronto Center
Sun 10:03:38 PM 44.5833 -81.9500 97° East 470 541 33,000  Level Toronto Center
Sun 10:04:38 PM 44.5667 -81.7833 98° East 480 552 33,000  Level Toronto Center
Sun 10:05:38 PM 44.5333 -81.5667 102° East 480 552 33,000  Level Toronto Center
Sun 10:06:38 PM 44.5000 -81.4167 107° East 480 552 33,000  Level Toronto Center
Sun 10:07:38 PM 44.4833 -81.2167 97° East 500 575 33,000 150 Level Toronto Center
Sun 10:08:38 PM 44.4500 -81.0167 103° East 490 564 33,300 600 Climbing Toronto Center
Sun 10:09:38 PM 44.4167 -80.8500 106° East 490 564 34,200 750 Climbing Toronto Center
Sun 10:10:38 PM 44.4000 -80.6667 97° East 490 564 34,800 400 Climbing Toronto Center
Sun 10:11:38 PM 44.3667 -80.4667 103° East 490 564 35,000 100 Climbing Toronto Center
Sun 10:12:38 PM 44.3500 -80.2833 97° East 500 575 35,000  Level Toronto Center
Sun 10:13:38 PM 44.3167 -80.0833 103° East 510 587 35,000  Level Toronto Center
Sun 10:14:38 PM 44.2833 -79.8833 103° East 510 587 35,000  Level Toronto Center
Sun 10:15:38 PM 44.2500 -79.7000 104° East 510 587 35,000  Level Toronto Center
Sun 10:16:38 PM 44.2167 -79.5000 103° East 510 587 35,000  Level Toronto Center
Sun 10:17:38 PM 44.1833 -79.3000 103° East 510 587 35,000  Level Toronto Center
Sun 10:18:38 PM 44.1500 -79.1000 103° East 510 587 35,000  Level Toronto Center
Sun 10:19:38 PM 44.1167 -78.9167 104° East 510 587 35,000  Level Toronto Center
Sun 10:20:38 PM 44.0833 -78.7000 102° East 510 587 35,000  Level Toronto Center
Sun 10:21:38 PM 44.0667 -78.5167 97° East 510 587 35,000  Level Toronto Center
Sun 10:22:38 PM 44.0167 -78.3333 111° Southeast 520 598 35,000  Level Toronto Center
Sun 10:23:38 PM 43.9833 -78.1333 103° East 520 598 35,000  Level Toronto Center
Sun 10:24:38 PM 43.9500 -77.9500 104° East 510 587 35,000  Level Toronto Center
Sun 10:25:38 PM 43.9167 -77.7500 103° East 510 587 35,000  Level Toronto Center
Sun 10:26:38 PM 43.8833 -77.5667 104° East 510 587 35,000 -300 Level Toronto Center
Sun 10:27:38 PM 43.8333 -77.3667 109° East 510 587 34,400 -700 Descending Toronto Center
Sun 10:28:38 PM 43.8000 -77.1833 104° East 520 598 33,600 -700 Descending Toronto Center
Sun 10:29:38 PM 43.7667 -76.9833 103° East 520 598 33,000 -300 Descending Toronto Center
Sun 10:30:38 PM 43.7500 -76.8000 97° East 520 598 33,000  Level Toronto Center
Sun 10:31:38 PM 43.6833 -76.6167 117° Southeast 510 587 33,000  Level Toronto Center
Sun 10:32:38 PM 43.6167 -76.4500 119° Southeast 500 575 33,000  Level Toronto Center
Sun 10:33:38 PM 43.5667 -76.2667 111° Southeast 500 575 33,000  Level Toronto Center
Sun 10:34:38 PM 43.5000 -76.1167 121° Southeast 500 575 33,000  Level Toronto Center
Sun 10:35:38 PM 43.4167 -75.9667 127° Southeast 490 564 33,000  Level Toronto Center
Sun 10:36:38 PM 43.3667 -75.7500 108° East 500 575 33,000  Level Toronto Center
Sun 10:37:38 PM 43.3000 -75.6000 121° Southeast 500 575 33,000 -1,150 Level Toronto Center
Sun 10:38:38 PM 43.2500 -75.4167 110° East 500 575 30,700 -2,750 Descending Toronto Center
Sun 10:39:38 PM 43.2167 -75.2333 104° East 490 564 27,500 -3,300 Descending Toronto Center
Sun 10:40:38 PM 43.1500 -75.0667 119° Southeast 480 552 24,100 -3,150 Descending Toronto Center
Sun 10:41:38 PM 43.1000 -74.9333 117° Southeast 470 541 21,200 -2,733 Descending Toronto Center
Sun 10:42:08 PM 43.0975 -74.8769 93° East 439 505 20,000 -2,492 Descending Boston Center
Sun 10:42:43 PM 43.0681 -74.7906 115° Southeast 433 498 18,500 -2,526 Descending Boston Center
Sun 10:43:43 PM 43.0269 -74.6639 114° Southeast 399 459 16,000 -2,550 Descending Boston Center
Sun 10:44:43 PM 42.9836 -74.5206 112° Southeast 383 441 13,400 -2,450 Descending Boston Center
Sun 10:45:43 PM 42.9692 -74.3922 99° East 365 420 11,100 -1,500 Descending Boston Center
Sun 10:46:43 PM 42.9592 -74.2531 96° East 347 399 10,400 -1,200 Descending Boston Center
Sun 10:47:43 PM 42.9503 -74.1478 97° East 311 358 8,700 -2,100 Descending Boston Center
Sun 10:48:43 PM 42.9417 -74.0311 96° East 293 337 6,200 -2,300 Descending Boston Center
Sun 10:49:43 PM 42.9344 -73.9375 96° East 282 325 4,100 -2,100 Descending Boston Center

Login

Don't have an account? Register now (free) for customized features, flight alerts, and more!